Terminal Aerodrome Forecast
Issued by NWS

Home | Current Version | Previous Version | Text Only | Print | Product List | Glossary On
Versions: 1 2 3 4 5 6 7 8 9 10 11 12 13 14 15 16 17 18 19 20 21 22 23 24 25 26 27 28 29 30 31 32 33 34
000
FTUS44 KSJT 221720
TAFJCT
TAF
KJCT 221720Z 2218/2318 16012G19KT P6SM SCT030 BKN200
     FM230500 15009KT P6SM BKN022
     FM230800 14010KT P6SM BKN012=

USA.gov is the U.S. government's official web portal to all federal, state and local government web resources and services.